createdAt,value
2018-10-18T00:00:33.913Z,96.33
2018-10-18T00:03:05.440Z,103.80
2018-10-18T00:05:33.717Z,115.22
2018-10-18T00:08:01.952Z,100.10
2018-10-18T00:10:30.209Z,107.65
2018-10-18T00:12:58.422Z,95.95
2018-10-18T00:15:26.777Z,91.80
2018-10-18T00:17:55.010Z,95.30
2018-10-18T00:20:23.234Z,126.90
2018-10-18T00:22:51.539Z,126.42
2018-10-18T00:25:19.781Z,126.00
2018-10-18T00:27:48.037Z,115.12
2018-10-18T00:30:16.467Z,120.42
2018-10-18T00:32:45.205Z,130.40
2018-10-18T00:35:13.716Z,131.82
2018-10-18T00:37:41.972Z,136.32
2018-10-18T00:40:11.689Z,140.90
2018-10-18T00:42:39.985Z,138.50
2018-10-18T00:45:09.158Z,140.77
2018-10-18T00:47:37.420Z,141.90
2018-10-18T00:50:06.869Z,137.20
2018-10-18T00:52:35.038Z,143.50
2018-10-18T00:55:03.287Z,126.67
2018-10-18T00:57:31.597Z,132.10
2018-10-18T00:59:59.850Z,118.80
2018-10-18T01:02:28.073Z,130.20
2018-10-18T01:04:56.287Z,126.37
2018-10-18T01:07:24.659Z,123.20
2018-10-18T01:09:52.915Z,117.15
2018-10-18T01:12:21.263Z,128.72
2018-10-18T01:14:49.410Z,110.30
2018-10-18T01:17:17.650Z,122.28
2018-10-18T01:19:45.906Z,115.95
2018-10-18T01:22:14.152Z,113.68
2018-10-18T01:24:42.389Z,109.92
2018-10-18T01:27:10.666Z,124.45
2018-10-18T01:29:38.957Z,108.72
2018-10-18T01:32:07.507Z,115.80
2018-10-18T01:34:35.717Z,110.20
2018-10-18T01:37:03.993Z,109.12
2018-10-18T01:39:32.307Z,116.25
2018-10-18T01:42:00.607Z,114.00
2018-10-18T01:44:28.828Z,118.13
2018-10-18T01:46:57.065Z,120.97
2018-10-18T01:49:25.335Z,109.95
2018-10-18T01:51:53.561Z,120.15
2018-10-18T01:54:21.798Z,117.17
2018-10-18T01:56:50.094Z,112.90
2018-10-18T01:59:18.322Z,112.37
2018-10-18T02:01:46.562Z,118.65
2018-10-18T02:04:14.877Z,114.77
2018-10-18T02:06:43.093Z,109.00
2018-10-18T02:09:12.280Z,115.55
2018-10-18T02:11:41.057Z,111.68
2018-10-18T02:14:09.342Z,103.55
2018-10-18T02:16:37.561Z,103.00
2018-10-18T02:19:06.269Z,98.50
2018-10-18T02:21:34.482Z,103.70
2018-10-18T02:24:02.786Z,102.22
2018-10-18T02:26:31.033Z,104.50
2018-10-18T02:28:59.250Z,102.22
2018-10-18T02:31:27.498Z,97.65
2018-10-18T02:33:55.728Z,91.72
2018-10-18T02:36:24.074Z,101.20
2018-10-18T02:38:52.282Z,98.58
2018-10-18T02:41:20.618Z,91.85
2018-10-18T02:43:48.813Z,95.23
2018-10-18T02:46:17.054Z,91.90
2018-10-18T02:48:45.317Z,86.40
2018-10-18T02:51:13.540Z,84.23
2018-10-18T02:53:41.806Z,83.63
2018-10-18T02:56:10.045Z,88.80
2018-10-18T02:58:38.360Z,80.30
2018-10-18T03:01:06.625Z,83.80
2018-10-18T03:03:34.849Z,84.47
2018-10-18T03:06:03.097Z,77.23
2018-10-18T03:08:31.336Z,82.73
2018-10-18T03:10:59.606Z,76.40
2018-10-18T03:13:27.890Z,83.80
2018-10-18T03:15:56.193Z,80.73
2018-10-18T03:18:24.397Z,81.80
2018-10-18T03:20:52.665Z,80.90
2018-10-18T03:23:20.929Z,74.73
2018-10-18T03:25:49.150Z,77.57
2018-10-18T03:28:17.476Z,75.93
2018-10-18T03:30:45.821Z,74.10
2018-10-18T03:33:14.094Z,83.10
2018-10-18T03:35:42.353Z,74.70
2018-10-18T03:38:10.595Z,70.17
2018-10-18T03:40:38.866Z,78.10
2018-10-18T03:43:07.121Z,77.78
2018-10-18T03:45:35.401Z,76.75
2018-10-18T03:48:03.728Z,73.62
2018-10-18T03:50:31.894Z,75.00
2018-10-18T03:53:00.146Z,70.32
2018-10-18T03:55:28.368Z,80.40
2018-10-18T03:57:56.632Z,77.63
2018-10-18T04:00:24.860Z,76.60
2018-10-18T04:02:53.085Z,70.77
2018-10-18T04:05:21.366Z,69.33
2018-10-18T04:07:49.610Z,73.10
2018-10-18T04:10:17.925Z,71.67
2018-10-18T04:12:46.198Z,70.55
2018-10-18T04:15:14.409Z,69.50
2018-10-18T04:17:42.674Z,73.40
2018-10-18T04:20:10.878Z,72.90
2018-10-18T04:22:39.105Z,67.53
2018-10-18T04:25:07.750Z,69.87
2018-10-18T04:27:35.993Z,65.97
2018-10-18T04:30:04.390Z,69.72
2018-10-18T04:32:32.564Z,69.82
2018-10-18T04:35:00.817Z,78.20
2018-10-18T04:37:35.833Z,69.95
2018-10-18T04:40:04.001Z,74.50
2018-10-18T04:42:32.243Z,72.13
2018-10-18T04:45:00.489Z,72.30
2018-10-18T04:47:28.850Z,69.87
2018-10-18T04:49:57.023Z,67.07
2018-10-18T04:52:25.273Z,75.00
2018-10-18T04:54:53.508Z,67.93
2018-10-18T04:57:22.206Z,70.10
2018-10-18T04:59:50.409Z,65.60
2018-10-18T05:02:18.657Z,72.62
2018-10-18T05:04:58.414Z,67.20
2018-10-18T05:07:26.957Z,69.17
2018-10-18T05:09:55.233Z,71.28
2018-10-18T05:12:23.456Z,71.17
2018-10-18T05:14:51.737Z,70.20
2018-10-18T05:17:20.023Z,66.70
2018-10-18T05:19:48.287Z,64.62
2018-10-18T05:22:16.797Z,66.15
2018-10-18T05:24:45.062Z,75.80
2018-10-18T05:27:13.290Z,78.02
2018-10-18T05:29:41.570Z,74.82
2018-10-18T05:32:09.817Z,68.67
2018-10-18T05:34:38.078Z,65.97
2018-10-18T05:37:06.499Z,70.57
2018-10-18T05:39:34.697Z,72.20
2018-10-18T05:42:02.977Z,71.75
2018-10-18T05:44:31.240Z,67.32
2018-10-18T05:46:59.599Z,64.60
2018-10-18T05:49:27.841Z,68.25
2018-10-18T05:51:56.097Z,69.05
2018-10-18T05:54:24.371Z,69.65
2018-10-18T05:56:52.657Z,60.58
2018-10-18T05:59:20.953Z,60.92
2018-10-18T06:01:49.195Z,57.43
2018-10-18T06:04:17.441Z,63.08
2018-10-18T06:06:45.685Z,62.25
2018-10-18T06:09:23.021Z,59.13
2018-10-18T06:11:51.370Z,60.50
2018-10-18T06:14:19.645Z,58.10
2018-10-18T06:16:47.942Z,59.20
2018-10-18T06:19:16.316Z,62.53
2018-10-18T06:21:44.581Z,58.38
2018-10-18T06:24:12.909Z,61.45
2018-10-18T06:26:41.197Z,60.75
2018-10-18T06:29:09.461Z,59.05
2018-10-18T06:31:37.811Z,58.08
2018-10-18T06:34:06.289Z,65.62
2018-10-18T06:36:34.581Z,62.80
2018-10-18T06:39:02.897Z,63.68
2018-10-18T06:41:31.184Z,62.25
2018-10-18T06:43:59.432Z,61.77
2018-10-18T06:46:27.689Z,56.88
2018-10-18T06:48:56.048Z,53.70
2018-10-18T06:51:24.253Z,52.20
2018-10-18T06:53:52.583Z,65.55
2018-10-18T06:56:20.863Z,51.00
2018-10-18T06:58:49.173Z,55.90
2018-10-18T07:01:17.434Z,54.60
2018-10-18T07:03:45.692Z,52.50
2018-10-18T07:06:14.040Z,53.23
2018-10-18T07:08:42.276Z,54.00
2018-10-18T07:11:10.542Z,53.60
2018-10-18T07:13:38.777Z,50.00
2018-10-18T07:16:07.040Z,53.53
2018-10-18T07:18:35.329Z,49.80
2018-10-18T07:21:03.575Z,50.27
2018-10-18T07:23:31.832Z,51.83
2018-10-18T07:26:00.097Z,52.70
2018-10-18T07:28:28.378Z,45.92
2018-10-18T07:30:56.679Z,49.45
2018-10-18T07:33:24.938Z,53.87
2018-10-18T07:35:53.248Z,49.67
2018-10-18T07:38:21.494Z,45.55
2018-10-18T07:40:49.763Z,44.38
2018-10-18T07:43:18.113Z,45.03
2018-10-18T07:45:46.365Z,47.37
2018-10-18T07:48:14.713Z,43.28
2018-10-18T07:50:42.980Z,41.68
2018-10-18T07:54:52.019Z,37.65
2018-10-18T07:57:20.336Z,42.45
2018-10-18T07:59:48.750Z,46.02
2018-10-18T08:02:17.046Z,37.58
2018-10-18T08:04:45.370Z,39.08
2018-10-18T08:07:13.768Z,37.13
2018-10-18T08:09:42.034Z,35.38
2018-10-18T08:12:10.356Z,34.40
2018-10-18T08:14:38.687Z,35.35
2018-10-18T08:17:07.038Z,35.98
2018-10-18T08:19:35.294Z,33.63
2018-10-18T08:22:03.610Z,32.77
2018-10-18T08:24:31.916Z,31.83
2018-10-18T08:27:00.206Z,31.23
2018-10-18T08:29:28.526Z,30.10
2018-10-18T08:31:56.845Z,26.35
2018-10-18T08:34:25.200Z,27.55
2018-10-18T08:36:53.621Z,35.35
2018-10-18T08:39:21.953Z,30.43
2018-10-18T08:41:50.256Z,25.55
2018-10-18T08:44:18.557Z,26.48
2018-10-18T08:46:46.840Z,24.30
2018-10-18T08:49:15.205Z,22.35
2018-10-18T08:51:43.480Z,20.35
2018-10-18T08:54:11.809Z,22.50
2018-10-18T08:56:40.140Z,23.83
2018-10-18T08:59:08.519Z,24.72
2018-10-18T09:01:36.853Z,19.45
2018-10-18T09:04:05.409Z,22.48
2018-10-18T09:06:33.729Z,23.95
2018-10-18T09:09:02.050Z,22.05
2018-10-18T09:11:30.369Z,19.92
2018-10-18T09:13:58.718Z,20.55
2018-10-18T09:16:27.003Z,18.30
2018-10-18T09:18:55.366Z,19.35
2018-10-18T09:21:23.684Z,19.75
2018-10-18T09:23:52.039Z,20.85
2018-10-18T09:26:20.315Z,20.15
2018-10-18T09:28:48.784Z,21.57
2018-10-18T09:31:17.179Z,18.33
2018-10-18T09:33:45.412Z,18.67
2018-10-18T09:36:13.718Z,22.13
2018-10-18T09:38:42.020Z,18.70
2018-10-18T09:41:10.319Z,20.10
2018-10-18T09:43:38.625Z,21.40
2018-10-18T09:46:07.072Z,22.63
2018-10-18T09:48:35.678Z,19.30
2018-10-18T09:51:03.997Z,21.15
2018-10-18T09:53:32.366Z,20.88
2018-10-18T09:56:00.767Z,18.98
2018-10-18T09:58:29.159Z,17.80
2018-10-18T10:01:02.789Z,17.00
2018-10-18T10:03:31.100Z,14.90
2018-10-18T10:05:59.426Z,16.57
2018-10-18T10:08:27.731Z,15.60
2018-10-18T10:10:56.038Z,14.60
2018-10-18T10:13:24.478Z,13.47
2018-10-18T10:15:52.621Z,15.47
2018-10-18T10:18:21.004Z,15.13
2018-10-18T10:20:49.263Z,11.10
2018-10-18T10:23:17.575Z,12.07
2018-10-18T10:25:45.873Z,9.68
2018-10-18T10:28:14.181Z,10.32
2018-10-18T10:30:42.463Z,9.73
2018-10-18T10:33:10.901Z,11.05
2018-10-18T10:35:39.144Z,8.40
2018-10-18T10:38:07.440Z,10.82
2018-10-18T10:40:35.726Z,10.15
2018-10-18T10:43:04.514Z,10.83
2018-10-18T10:45:32.817Z,10.53
2018-10-18T10:48:01.190Z,9.53
2018-10-18T10:50:29.471Z,14.15
2018-10-18T10:52:57.817Z,8.65
2018-10-18T10:55:26.127Z,8.33
2018-10-18T10:57:54.679Z,7.30
2018-10-18T11:00:37.380Z,7.63
2018-10-18T11:03:05.763Z,10.20
2018-10-18T11:05:34.064Z,8.90
2018-10-18T11:08:02.414Z,9.63
2018-10-18T11:10:30.684Z,10.10
2018-10-18T11:12:58.970Z,7.40
2018-10-18T11:15:27.264Z,11.10
2018-10-18T11:17:55.567Z,8.30
2018-10-18T11:20:23.899Z,8.08
2018-10-18T11:22:52.231Z,6.87
2018-10-18T11:25:20.516Z,7.12
2018-10-18T11:27:48.821Z,15.20
2018-10-18T11:30:17.129Z,7.62
2018-10-18T11:32:45.455Z,7.78
2018-10-18T11:35:13.772Z,9.63
2018-10-18T11:37:42.057Z,7.97
2018-10-18T11:40:10.360Z,6.40
2018-10-18T11:42:38.708Z,7.60
2018-10-18T11:45:07.032Z,7.70
2018-10-18T11:47:35.383Z,7.67
2018-10-18T11:50:03.759Z,7.42
2018-10-18T11:52:32.022Z,7.45
2018-10-18T11:55:00.328Z,8.53
2018-10-18T11:57:28.628Z,6.08
2018-10-18T11:59:56.920Z,5.85
2018-10-18T12:02:25.300Z,8.43
2018-10-18T12:04:53.594Z,6.12
2018-10-18T12:07:21.910Z,8.38
2018-10-18T12:09:50.234Z,8.50
2018-10-18T12:12:18.540Z,5.22
2018-10-18T12:14:46.845Z,5.30
2018-10-18T12:17:15.210Z,6.85
2018-10-18T12:19:43.476Z,7.65
2018-10-18T12:22:11.801Z,12.25
2018-10-18T12:24:40.287Z,11.80
2018-10-18T12:27:08.572Z,14.13
2018-10-18T12:29:36.869Z,15.28
2018-10-18T12:32:05.504Z,17.80
2018-10-18T12:34:33.766Z,15.32
2018-10-18T12:37:02.192Z,14.73
2018-10-18T12:39:30.593Z,16.45
2018-10-18T12:41:58.835Z,15.20
2018-10-18T12:44:31.456Z,13.32
2018-10-18T12:46:59.791Z,14.20
2018-10-18T12:49:28.103Z,13.27
2018-10-18T12:51:56.422Z,16.23
2018-10-18T12:54:24.764Z,11.10
2018-10-18T12:56:53.143Z,10.80
2018-10-18T12:59:21.431Z,8.30
2018-10-18T13:01:49.795Z,7.93
2018-10-18T13:04:18.094Z,7.40
2018-10-18T13:06:46.578Z,5.37
2018-10-18T13:09:14.887Z,5.70
2018-10-18T13:11:43.258Z,4.62
2018-10-18T13:14:11.694Z,3.35
2018-10-18T13:16:39.890Z,2.55
2018-10-18T13:19:08.742Z,5.70
2018-10-18T13:21:37.087Z,2.43
2018-10-18T13:24:05.819Z,3.80
2018-10-18T13:26:34.436Z,4.20
2018-10-18T13:29:02.743Z,3.80
2018-10-18T13:31:31.114Z,4.33
2018-10-18T13:33:59.475Z,6.53
2018-10-18T13:36:27.780Z,32.65
2018-10-18T13:38:56.128Z,8.03
2018-10-18T13:41:24.532Z,3.30
2018-10-18T13:43:52.871Z,4.83
2018-10-18T13:46:21.234Z,5.93
2018-10-18T13:48:49.572Z,4.93
2018-10-18T13:51:18.045Z,6.90
2018-10-18T13:53:46.348Z,7.47
2018-10-18T13:56:14.801Z,6.80
2018-10-18T13:58:43.598Z,7.10
2018-10-18T14:01:11.942Z,6.75
2018-10-18T14:03:40.231Z,6.10
2018-10-18T14:06:08.543Z,5.28
2018-10-18T14:08:36.949Z,9.00
2018-10-18T14:11:05.431Z,7.63
2018-10-18T14:13:33.747Z,7.60
2018-10-18T14:16:02.078Z,6.80
2018-10-18T14:18:30.363Z,6.30
2018-10-18T14:20:58.740Z,6.45
2018-10-18T14:23:27.123Z,6.42
2018-10-18T14:25:55.494Z,7.80
2018-10-18T14:28:23.784Z,8.05
2018-10-18T14:30:52.177Z,8.40
2018-10-18T14:33:20.491Z,12.28
2018-10-18T14:35:48.839Z,7.37
2018-10-18T14:38:17.222Z,5.97
2018-10-18T14:40:45.514Z,5.55
2018-10-18T14:43:14.124Z,5.70
2018-10-18T14:45:42.412Z,6.80
2018-10-18T14:48:10.752Z,6.50
2018-10-18T14:50:39.144Z,4.00
2018-10-18T14:53:07.480Z,4.03
2018-10-18T14:55:35.862Z,3.47
2018-10-18T14:58:04.164Z,3.25
2018-10-18T15:00:32.476Z,2.90
2018-10-18T15:03:00.779Z,3.37
2018-10-18T15:05:29.060Z,4.40
2018-10-18T15:07:57.398Z,5.40
2018-10-18T15:10:25.915Z,3.50
2018-10-18T15:12:54.236Z,4.00
2018-10-18T15:15:22.532Z,4.83
2018-10-18T15:17:50.895Z,4.20
2018-10-18T15:20:19.203Z,4.65
2018-10-18T15:22:47.503Z,8.58
2018-10-18T15:25:15.877Z,7.03
2018-10-18T15:27:44.357Z,6.67
2018-10-18T15:30:13.304Z,6.67
2018-10-18T15:32:41.585Z,9.63
2018-10-18T15:35:11.086Z,5.42
2018-10-18T15:37:39.511Z,11.57
2018-10-18T15:40:08.266Z,6.85
2018-10-18T15:42:36.905Z,4.40
2018-10-18T15:45:05.872Z,5.65
2018-10-18T15:47:34.142Z,5.53
2018-10-18T15:50:02.479Z,8.25
2018-10-18T15:52:30.810Z,8.28
2018-10-18T15:54:59.120Z,5.40
2018-10-18T15:57:27.438Z,9.75
2018-10-18T15:59:55.842Z,7.75
2018-10-18T16:02:24.184Z,7.65
2018-10-18T16:04:52.498Z,6.80
2018-10-18T16:07:20.856Z,8.40
2018-10-18T16:09:49.176Z,8.75
2018-10-18T16:12:17.507Z,11.43
2018-10-18T16:14:45.855Z,9.03
2018-10-18T16:17:14.229Z,10.30
2018-10-18T16:19:42.466Z,13.80
2018-10-18T16:22:10.755Z,14.43
2018-10-18T16:24:39.097Z,16.07
2018-10-18T16:27:07.444Z,12.78
2018-10-18T16:29:35.771Z,12.63
2018-10-18T16:32:04.229Z,13.48
2018-10-18T16:34:32.487Z,13.55
2018-10-18T16:37:00.813Z,12.80
2018-10-18T16:39:29.189Z,13.18
2018-10-18T16:41:57.563Z,13.90
2018-10-18T16:44:25.846Z,12.87
2018-10-18T16:46:54.155Z,12.60
2018-10-18T16:49:22.456Z,13.08
2018-10-18T16:51:50.892Z,10.75
2018-10-18T16:54:19.293Z,11.83
2018-10-18T16:56:47.687Z,10.03
2018-10-18T16:59:16.030Z,12.60
2018-10-18T17:01:44.340Z,15.97
2018-10-18T17:04:12.689Z,12.57
2018-10-18T17:06:40.908Z,11.87
2018-10-18T17:09:10.181Z,14.00
2018-10-18T17:11:38.761Z,11.15
2018-10-18T17:14:07.151Z,11.88
2018-10-18T17:16:35.498Z,13.05
2018-10-18T17:19:03.788Z,11.63
2018-10-18T17:21:32.072Z,15.38
2018-10-18T17:24:00.394Z,11.85
2018-10-18T17:26:28.772Z,13.70
2018-10-18T17:28:57.031Z,17.13
2018-10-18T17:31:25.342Z,14.25
2018-10-18T17:33:53.670Z,14.55
2018-10-18T17:36:21.955Z,15.03
2018-10-18T17:38:50.251Z,16.20
2018-10-18T17:41:18.559Z,17.65
2018-10-18T17:43:46.842Z,15.05
2018-10-18T17:46:15.239Z,17.70
2018-10-18T17:48:43.568Z,12.33
2018-10-18T17:51:11.843Z,20.00
2018-10-18T17:53:40.148Z,15.53
2018-10-18T17:56:08.556Z,16.20
2018-10-18T17:58:36.862Z,17.07
2018-10-18T18:01:05.479Z,19.40
2018-10-18T18:03:33.924Z,19.70
2018-10-18T18:06:02.324Z,23.60
2018-10-18T18:08:30.563Z,23.45
2018-10-18T18:10:58.886Z,20.77
2018-10-18T18:13:27.194Z,17.10
2018-10-18T18:15:55.524Z,15.28
2018-10-18T18:18:23.852Z,17.23
2018-10-18T18:20:52.145Z,20.30
2018-10-18T18:23:20.464Z,16.00
2018-10-18T18:25:48.774Z,17.00
2018-10-18T18:28:17.088Z,16.85
2018-10-18T18:30:45.391Z,14.28
2018-10-18T18:33:13.657Z,20.30
2018-10-18T18:35:41.931Z,16.27
2018-10-18T18:38:10.239Z,17.07
2018-10-18T18:40:38.519Z,20.57
2018-10-18T18:43:06.872Z,13.62
2018-10-18T18:45:36.203Z,19.05
2018-10-18T18:48:05.244Z,24.37
2018-10-18T18:50:33.558Z,14.60
2018-10-18T18:53:02.302Z,23.65
2018-10-18T18:55:30.517Z,19.33
2018-10-18T18:57:58.951Z,20.67
2018-10-18T19:00:27.267Z,19.10
2018-10-18T19:02:55.558Z,15.65
2018-10-18T19:05:23.894Z,20.62
2018-10-18T19:07:52.201Z,22.13
2018-10-18T19:10:20.544Z,25.75
2018-10-18T19:12:48.827Z,23.25
2018-10-18T19:15:17.140Z,21.30
2018-10-18T19:17:45.422Z,24.00
2018-10-18T19:20:13.691Z,20.82
2018-10-18T19:22:42.094Z,26.20
2018-10-18T19:25:10.284Z,20.90
2018-10-18T19:27:39.157Z,19.00
2018-10-18T19:30:08.982Z,26.52
2018-10-18T19:32:37.283Z,29.48
2018-10-18T19:35:05.615Z,24.18
2018-10-18T19:37:33.903Z,23.15
2018-10-18T19:40:02.236Z,21.55
2018-10-18T19:42:30.556Z,21.00
2018-10-18T19:44:58.857Z,19.57
2018-10-18T19:47:27.164Z,17.67
2018-10-18T19:49:55.487Z,21.50
2018-10-18T19:52:24.314Z,16.60
2018-10-18T19:54:52.443Z,18.85
2018-10-18T19:57:20.743Z,19.02
2018-10-18T19:59:49.030Z,15.43
2018-10-18T20:02:17.304Z,19.45
2018-10-18T20:04:45.599Z,21.45
2018-10-18T20:07:13.919Z,22.23
2018-10-18T20:09:42.295Z,15.20
2018-10-18T20:12:10.610Z,18.37
2018-10-18T20:14:38.852Z,17.50
2018-10-18T20:17:07.595Z,17.87
2018-10-18T20:19:35.891Z,17.23
2018-10-18T20:22:05.635Z,20.77
2018-10-18T20:24:33.983Z,19.75
2018-10-18T20:27:02.579Z,18.95
2018-10-18T20:29:30.871Z,17.13
2018-10-18T20:31:59.160Z,16.93
2018-10-18T20:34:27.457Z,19.17
2018-10-18T20:36:55.820Z,14.15
2018-10-18T20:39:24.103Z,16.50
2018-10-18T20:41:52.419Z,15.80
2018-10-18T20:44:20.711Z,18.70
2018-10-18T20:46:49.100Z,18.48
2018-10-18T20:49:17.323Z,17.80
2018-10-18T20:51:45.654Z,17.40
2018-10-18T20:54:14.015Z,15.83
2018-10-18T20:56:42.223Z,17.62
2018-10-18T20:59:10.503Z,19.30
2018-10-18T21:01:38.806Z,18.65
2018-10-18T21:04:07.066Z,20.15
2018-10-18T21:06:35.527Z,19.30
2018-10-18T21:09:03.801Z,18.00
2018-10-18T21:11:32.066Z,16.17
2018-10-18T21:14:00.353Z,16.82
2018-10-18T21:16:28.683Z,16.27
2018-10-18T21:18:56.962Z,18.23
2018-10-18T21:21:25.267Z,11.97
2018-10-18T21:23:53.818Z,19.17
2018-10-18T21:26:22.256Z,16.30
2018-10-18T21:28:50.554Z,16.57
2018-10-18T21:31:18.828Z,17.00
2018-10-18T21:33:47.141Z,19.90
2018-10-18T21:36:15.422Z,18.37
2018-10-18T21:38:43.683Z,17.00
2018-10-18T21:41:12.051Z,17.65
2018-10-18T21:43:40.264Z,16.77
2018-10-18T21:46:08.582Z,15.80
2018-10-18T21:48:37.158Z,16.52
2018-10-18T21:51:05.641Z,16.25
2018-10-18T21:53:33.899Z,16.47
2018-10-18T21:56:02.206Z,17.03
2018-10-18T21:58:30.495Z,14.68
2018-10-18T22:00:58.771Z,15.28
2018-10-18T22:03:27.091Z,16.23
2018-10-18T22:05:55.348Z,18.60
2018-10-18T22:08:23.735Z,12.73
2018-10-18T22:10:52.050Z,15.45
2018-10-18T22:13:20.345Z,14.65
2018-10-18T22:15:48.610Z,17.67
2018-10-18T22:18:16.978Z,16.82
2018-10-18T22:20:45.286Z,16.60
2018-10-18T22:23:13.618Z,21.17
2018-10-18T22:25:41.910Z,19.13
2018-10-18T22:28:10.177Z,19.07
2018-10-18T22:30:38.463Z,22.60
2018-10-18T22:33:06.819Z,18.33
2018-10-18T22:35:35.095Z,16.70
2018-10-18T22:38:03.420Z,15.63
2018-10-18T22:40:31.683Z,17.82
2018-10-18T22:42:59.979Z,20.15
2018-10-18T22:45:28.236Z,17.57
2018-10-18T22:47:56.515Z,18.90
2018-10-18T22:50:24.865Z,23.95
2018-10-18T22:52:53.239Z,18.70
2018-10-18T22:55:21.519Z,21.30
2018-10-18T22:57:49.814Z,19.95
2018-10-18T23:00:18.143Z,22.20
2018-10-18T23:02:46.439Z,20.97
2018-10-18T23:05:14.774Z,19.30
2018-10-18T23:07:42.995Z,21.53
2018-10-18T23:10:11.309Z,25.13
2018-10-18T23:12:39.583Z,18.57
2018-10-18T23:15:09.092Z,22.85
2018-10-18T23:17:37.406Z,23.85
2018-10-18T23:20:06.819Z,21.97
2018-10-18T23:22:35.106Z,20.30
2018-10-18T23:25:03.443Z,24.85
2018-10-18T23:27:32.821Z,27.05
2018-10-18T23:30:01.093Z,22.33
2018-10-18T23:32:30.427Z,24.10
2018-10-18T23:34:59.168Z,23.30
2018-10-18T23:37:27.488Z,22.35
2018-10-18T23:39:55.795Z,22.85
2018-10-18T23:42:24.086Z,20.05
2018-10-18T23:44:52.389Z,22.83
2018-10-18T23:47:20.727Z,23.97
2018-10-18T23:49:49.255Z,27.75
2018-10-18T23:52:17.543Z,20.15
2018-10-18T23:54:45.850Z,29.02
2018-10-18T23:57:14.240Z,24.12
2018-10-18T23:59:42.435Z,23.12
